Asaph, Pennsylvania
Current Conditions -  °F | °C
As of 8:35 AM on Wednesday 26 Nov 2014 (Local Time) from KN38 Reporting Station
Overcast Overcast  
Wind Chill: 23°   Ceiling: 1000
Heat Index: 30°   Visibility: 9mi
Dew Point: 27°   Wind: 7mph
Humidity: 86%   Direction: 50°NE
Pressure: 30.12"   Gusts: 13mph
Location:  41.7308°N, 77.349°W
Report Text: KN38 261335Z AUTO 05006G11KT 9SM OVC010 M01/M03 A3012 RMK AO2
Loading
Personal Weather Stations






























Interactive Weather Map New forecast layout! Learn more

10-Day Weather Forecast

Advertisements
Track Severe Weather on mobile